createdAt,value
2017-09-24T00:01:32.204Z,99.90
2017-09-24T00:04:00.085Z,99.90
2017-09-24T00:06:27.662Z,99.90
2017-09-24T00:08:55.250Z,99.90
2017-09-24T00:11:22.858Z,99.90
2017-09-24T00:13:50.438Z,99.90
2017-09-24T00:16:18.043Z,99.90
2017-09-24T00:18:45.611Z,99.90
2017-09-24T00:21:13.598Z,99.90
2017-09-24T00:23:41.214Z,99.90
2017-09-24T00:26:08.801Z,99.90
2017-09-24T00:28:36.413Z,99.90
2017-09-24T00:31:04.754Z,99.90
2017-09-24T00:33:32.378Z,99.90
2017-09-24T00:35:59.955Z,99.90
2017-09-24T00:38:27.802Z,99.90
2017-09-24T00:40:55.403Z,99.90
2017-09-24T00:43:23.057Z,99.90
2017-09-24T00:45:50.652Z,99.90
2017-09-24T00:48:18.246Z,99.90
2017-09-24T00:50:45.848Z,99.90
2017-09-24T00:53:13.467Z,99.90
2017-09-24T00:55:41.176Z,99.90
2017-09-24T00:58:08.770Z,99.90
2017-09-24T01:00:36.354Z,99.90
2017-09-24T01:03:03.967Z,99.90
2017-09-24T01:05:31.551Z,99.90
2017-09-24T01:07:59.167Z,99.90
2017-09-24T01:10:26.763Z,99.90
2017-09-24T01:12:55.523Z,99.90
2017-09-24T01:15:23.117Z,99.90
2017-09-24T01:17:50.734Z,99.90
2017-09-24T01:20:18.362Z,99.90
2017-09-24T01:22:46.109Z,99.90
2017-09-24T01:25:13.726Z,99.90
2017-09-24T01:27:41.298Z,99.90
2017-09-24T01:30:09.010Z,99.90
2017-09-24T01:32:36.717Z,99.90
2017-09-24T01:35:04.287Z,99.90
2017-09-24T01:37:32.640Z,99.90
2017-09-24T01:40:00.757Z,99.90
2017-09-24T01:42:28.414Z,99.90
2017-09-24T01:44:56.812Z,99.90
2017-09-24T01:47:24.708Z,99.90
2017-09-24T01:49:52.298Z,99.90
2017-09-24T01:52:19.886Z,99.90
2017-09-24T01:54:47.498Z,99.90
2017-09-24T01:57:16.396Z,99.90
2017-09-24T01:59:43.990Z,99.90
2017-09-24T02:02:11.582Z,99.90
2017-09-24T02:04:39.381Z,99.90
2017-09-24T02:07:06.966Z,99.90
2017-09-24T02:09:35.317Z,99.90
2017-09-24T02:12:02.915Z,99.90
2017-09-24T02:14:30.715Z,99.90
2017-09-24T02:16:58.330Z,99.90
2017-09-24T02:19:26.988Z,99.90
2017-09-24T02:21:54.707Z,99.90
2017-09-24T02:24:22.304Z,99.90
2017-09-24T02:26:49.886Z,99.90
2017-09-24T02:29:17.520Z,99.90
2017-09-24T02:31:45.802Z,99.90
2017-09-24T02:34:13.448Z,99.90
2017-09-24T02:36:41.088Z,99.90
2017-09-24T02:39:09.017Z,99.90
2017-09-24T02:41:37.430Z,99.90
2017-09-24T02:44:05.039Z,99.90
2017-09-24T02:46:32.633Z,99.90
2017-09-24T02:49:00.223Z,99.90
2017-09-24T02:51:27.849Z,99.90
2017-09-24T02:53:56.217Z,99.90
2017-09-24T02:56:24.869Z,99.90
2017-09-24T02:58:52.463Z,99.90
2017-09-24T03:01:20.819Z,99.90
2017-09-24T03:03:48.660Z,99.90
2017-09-24T03:06:16.215Z,99.90
2017-09-24T03:08:43.814Z,99.90
2017-09-24T03:11:11.399Z,99.90
2017-09-24T03:13:39.319Z,99.90
2017-09-24T03:16:06.902Z,99.90
2017-09-24T03:18:34.486Z,99.90
2017-09-24T03:21:02.109Z,99.90
2017-09-24T03:23:29.899Z,99.90
2017-09-24T03:25:58.601Z,99.90
2017-09-24T03:28:26.179Z,99.90
2017-09-24T03:30:54.023Z,99.90
2017-09-24T03:33:21.605Z,99.90
2017-09-24T03:35:49.229Z,99.90
2017-09-24T03:38:17.601Z,99.90
2017-09-24T03:40:45.935Z,99.90
2017-09-24T03:43:13.545Z,99.90
2017-09-24T03:45:41.904Z,99.90
2017-09-24T03:48:09.861Z,99.90
2017-09-24T03:50:37.454Z,99.90
2017-09-24T03:53:05.799Z,99.90
2017-09-24T03:55:33.397Z,99.90
2017-09-24T03:58:01.002Z,99.90
2017-09-24T04:00:29.388Z,99.90
2017-09-24T04:03:01.729Z,99.90
2017-09-24T04:05:29.613Z,99.90
2017-09-24T04:07:57.209Z,99.90
2017-09-24T04:10:24.755Z,99.90
2017-09-24T04:12:52.329Z,99.90
2017-09-24T04:15:19.899Z,99.90
2017-09-24T04:17:47.770Z,99.90
2017-09-24T04:20:16.434Z,99.90
2017-09-24T04:22:44.299Z,99.90
2017-09-24T04:25:11.882Z,99.90
2017-09-24T04:27:40.239Z,99.90
2017-09-24T04:30:07.828Z,99.90
2017-09-24T04:32:35.385Z,99.90
2017-09-24T04:35:03.746Z,99.90
2017-09-24T04:37:32.104Z,99.90
2017-09-24T04:39:59.986Z,99.90
2017-09-24T04:42:28.325Z,99.90
2017-09-24T04:44:55.970Z,99.90
2017-09-24T04:47:23.578Z,99.90
2017-09-24T04:49:51.145Z,99.90
2017-09-24T04:52:19.506Z,99.90
2017-09-24T04:54:47.266Z,99.90
2017-09-24T04:57:15.934Z,99.90
2017-09-24T04:59:43.515Z,99.90
2017-09-24T05:02:11.102Z,99.90
2017-09-24T05:04:39.503Z,99.90
2017-09-24T05:07:07.083Z,99.90
2017-09-24T05:09:34.706Z,99.90
2017-09-24T05:12:03.390Z,99.90
2017-09-24T05:14:32.118Z,99.90
2017-09-24T05:16:59.711Z,99.90
2017-09-24T05:19:27.305Z,99.90
2017-09-24T05:21:54.903Z,99.90
2017-09-24T05:24:22.484Z,99.90
2017-09-24T05:26:50.087Z,99.90
2017-09-24T05:29:17.685Z,99.90
2017-09-24T05:31:45.385Z,99.90
2017-09-24T05:34:13.744Z,99.90
2017-09-24T05:36:41.320Z,99.90
2017-09-24T05:39:09.690Z,99.90
2017-09-24T05:41:37.298Z,99.90
2017-09-24T05:44:05.013Z,99.90
2017-09-24T05:46:32.586Z,99.90
2017-09-24T05:49:00.939Z,99.90
2017-09-24T05:51:28.610Z,99.90
2017-09-24T05:53:56.178Z,99.90
2017-09-24T05:56:24.569Z,99.90
2017-09-24T05:58:52.920Z,99.90
2017-09-24T06:01:20.764Z,99.90
2017-09-24T06:03:49.000Z,99.90
2017-09-24T06:06:16.675Z,99.90
2017-09-24T06:08:44.297Z,99.90
2017-09-24T06:11:12.643Z,99.90
2017-09-24T06:13:40.230Z,99.90
2017-09-24T06:16:07.981Z,99.90
2017-09-24T06:18:35.699Z,99.90
2017-09-24T06:21:03.348Z,99.90
2017-09-24T06:23:31.246Z,99.90
2017-09-24T06:25:58.831Z,99.90
2017-09-24T06:28:26.439Z,98.70
2017-09-24T06:30:54.063Z,96.40
2017-09-24T06:33:21.649Z,94.40
2017-09-24T06:35:49.248Z,93.30
2017-09-24T06:38:16.840Z,91.50
2017-09-24T06:40:44.764Z,91.00
2017-09-24T06:43:12.337Z,86.00
2017-09-24T06:45:39.925Z,82.50
2017-09-24T06:48:07.537Z,79.40
2017-09-24T06:50:35.144Z,77.90
2017-09-24T06:53:02.762Z,74.30
2017-09-24T06:55:30.480Z,74.00
2017-09-24T06:57:59.455Z,67.50
2017-09-24T07:00:27.170Z,67.40
2017-09-24T07:02:54.770Z,64.20
2017-09-24T07:05:22.406Z,63.60
2017-09-24T07:07:50.009Z,63.10
2017-09-24T07:10:17.958Z,61.80
2017-09-24T07:12:45.543Z,63.00
2017-09-24T07:15:13.891Z,54.90
2017-09-24T07:17:41.582Z,55.50
2017-09-24T07:20:09.934Z,53.30
2017-09-24T07:22:37.569Z,53.20
2017-09-24T07:25:05.198Z,52.60
2017-09-24T07:27:32.983Z,53.70
2017-09-24T07:30:00.644Z,50.90
2017-09-24T07:32:28.231Z,50.20
2017-09-24T07:34:56.106Z,49.80
2017-09-24T07:37:23.694Z,50.50
2017-09-24T07:39:52.055Z,48.00
2017-09-24T07:42:19.650Z,48.00
2017-09-24T07:44:47.247Z,49.40
2017-09-24T07:47:15.200Z,47.80
2017-09-24T07:49:42.792Z,47.40
2017-09-24T07:52:10.379Z,46.20
2017-09-24T07:54:38.749Z,45.10
2017-09-24T07:57:06.351Z,45.10
2017-09-24T07:59:33.979Z,39.70
2017-09-24T08:02:02.394Z,40.50
2017-09-24T08:04:30.290Z,40.50
2017-09-24T08:06:58.665Z,36.90
2017-09-24T08:09:27.219Z,36.20
2017-09-24T08:11:54.850Z,36.90
2017-09-24T08:14:22.471Z,35.50
2017-09-24T08:16:50.481Z,34.00
2017-09-24T08:19:18.082Z,34.20
2017-09-24T08:21:45.679Z,33.70
2017-09-24T08:24:13.326Z,33.90
2017-09-24T08:26:41.321Z,33.90
2017-09-24T08:29:09.289Z,32.40
2017-09-24T08:31:36.960Z,31.60
2017-09-24T08:34:05.325Z,31.20
2017-09-24T08:36:33.894Z,31.70
2017-09-24T08:39:01.487Z,31.00
2017-09-24T08:41:29.523Z,31.10
2017-09-24T08:43:57.081Z,32.90
2017-09-24T08:46:24.671Z,32.50
2017-09-24T08:48:53.051Z,32.20
2017-09-24T08:51:21.468Z,31.40
2017-09-24T08:53:49.091Z,31.50
2017-09-24T08:56:17.430Z,30.80
2017-09-24T08:58:45.387Z,30.70
2017-09-24T09:01:12.998Z,31.30
2017-09-24T09:03:41.374Z,30.20
2017-09-24T09:06:09.768Z,32.50
2017-09-24T09:08:37.362Z,32.50
2017-09-24T09:11:04.956Z,32.80
2017-09-24T09:13:33.363Z,31.70
2017-09-24T09:16:01.229Z,31.00
2017-09-24T09:18:28.842Z,29.80
2017-09-24T09:20:56.422Z,28.90
2017-09-24T09:23:24.063Z,28.30
2017-09-24T09:25:51.661Z,27.50
2017-09-24T09:28:19.262Z,28.40
2017-09-24T09:30:46.878Z,28.50
2017-09-24T09:33:21.498Z,28.80
2017-09-24T09:35:50.179Z,29.60
2017-09-24T09:38:18.610Z,29.40
2017-09-24T09:40:46.257Z,29.20
2017-09-24T09:43:13.849Z,28.80
2017-09-24T09:45:53.338Z,30.50
2017-09-24T09:48:20.945Z,29.30
2017-09-24T09:50:48.911Z,28.20
2017-09-24T09:53:16.501Z,28.20
2017-09-24T09:55:44.886Z,26.40
2017-09-24T09:58:13.494Z,27.60
2017-09-24T10:00:42.186Z,27.40
2017-09-24T10:03:10.434Z,27.80
2017-09-24T10:05:38.138Z,27.30
2017-09-24T10:08:18.163Z,25.90
2017-09-24T10:10:45.847Z,25.70
2017-09-24T10:13:13.487Z,25.70
2017-09-24T10:15:41.088Z,25.80
2017-09-24T10:18:08.691Z,24.80
2017-09-24T10:20:37.019Z,24.50
2017-09-24T10:23:05.051Z,24.50
2017-09-24T10:25:32.667Z,24.90
2017-09-24T10:28:00.260Z,25.20
2017-09-24T10:30:39.773Z,25.10
2017-09-24T10:33:07.366Z,25.60
2017-09-24T10:35:34.980Z,26.40
2017-09-24T10:38:02.596Z,27.50
2017-09-24T10:40:30.330Z,27.60
2017-09-24T10:42:57.923Z,28.40
2017-09-24T10:45:25.538Z,28.00
2017-09-24T10:47:53.354Z,27.90
2017-09-24T10:50:20.985Z,27.00
2017-09-24T10:52:48.636Z,26.10
2017-09-24T10:55:17.014Z,26.10
2017-09-24T10:57:45.514Z,28.60
2017-09-24T11:00:13.842Z,28.00
2017-09-24T11:02:41.414Z,27.80
2017-09-24T11:05:09.041Z,27.50
2017-09-24T11:07:36.634Z,26.40
2017-09-24T11:10:04.254Z,25.80
2017-09-24T11:12:31.847Z,25.20
2017-09-24T11:14:59.452Z,24.30
2017-09-24T11:17:27.087Z,25.60
2017-09-24T11:19:54.682Z,26.30
2017-09-24T11:22:23.627Z,26.60
2017-09-24T11:24:51.230Z,25.30
2017-09-24T11:27:18.796Z,25.60
2017-09-24T11:29:46.436Z,25.80
2017-09-24T11:32:14.794Z,25.60
2017-09-24T11:34:42.651Z,25.60
2017-09-24T11:37:10.470Z,23.90
2017-09-24T11:39:38.059Z,23.40
2017-09-24T11:42:05.695Z,23.90
2017-09-24T11:44:33.289Z,24.00
2017-09-24T11:47:00.883Z,24.60
2017-09-24T11:49:29.234Z,25.20
2017-09-24T11:51:57.261Z,25.20
2017-09-24T11:54:24.875Z,25.50
2017-09-24T11:56:52.618Z,24.80
2017-09-24T11:59:20.348Z,25.60
2017-09-24T12:01:47.935Z,26.40
2017-09-24T12:04:16.075Z,26.90
2017-09-24T12:06:43.731Z,27.00
2017-09-24T12:09:11.638Z,27.20
2017-09-24T12:11:39.250Z,26.40
2017-09-24T12:14:06.859Z,25.40
2017-09-24T12:16:34.458Z,25.50
2017-09-24T12:19:03.124Z,25.50
2017-09-24T12:21:31.916Z,25.60
2017-09-24T12:23:59.565Z,25.60
2017-09-24T12:26:27.294Z,25.10
2017-09-24T12:28:54.879Z,25.70
2017-09-24T12:31:22.533Z,25.60
2017-09-24T12:33:50.146Z,25.00
2017-09-24T12:36:17.740Z,24.30
2017-09-24T12:38:45.403Z,23.70
2017-09-24T12:41:13.002Z,24.40
2017-09-24T12:43:40.948Z,22.80
2017-09-24T12:46:08.534Z,22.50
2017-09-24T12:48:36.897Z,24.20
2017-09-24T12:51:04.532Z,23.90
2017-09-24T12:53:32.152Z,24.50
2017-09-24T12:56:00.530Z,25.50
2017-09-24T12:58:28.876Z,27.10
2017-09-24T13:00:56.726Z,27.10
2017-09-24T13:03:24.578Z,29.20
2017-09-24T13:05:52.614Z,30.40
2017-09-24T13:08:20.250Z,32.70
2017-09-24T13:10:47.871Z,34.80
2017-09-24T13:13:15.496Z,37.20
2017-09-24T13:15:43.087Z,39.60
2017-09-24T13:18:11.082Z,42.30
2017-09-24T13:20:38.714Z,44.20
2017-09-24T13:23:06.318Z,43.20
2017-09-24T13:25:34.200Z,41.80
2017-09-24T13:28:02.727Z,38.90
2017-09-24T13:30:30.728Z,38.80
2017-09-24T13:32:58.312Z,37.20
2017-09-24T13:35:26.673Z,33.40
2017-09-24T13:37:54.321Z,33.30
2017-09-24T13:40:22.123Z,31.40
2017-09-24T13:42:50.352Z,31.60
2017-09-24T13:45:18.088Z,30.00
2017-09-24T13:47:45.718Z,30.80
2017-09-24T13:50:14.094Z,33.40
2017-09-24T13:52:42.444Z,33.60
2017-09-24T13:55:10.100Z,33.60
2017-09-24T13:57:37.677Z,33.10
2017-09-24T14:00:06.180Z,35.60
2017-09-24T14:02:34.543Z,37.80
2017-09-24T14:05:02.963Z,39.10
2017-09-24T14:07:30.557Z,39.10
2017-09-24T14:09:58.911Z,42.70
2017-09-24T14:12:26.529Z,42.70
2017-09-24T14:14:55.225Z,47.50
2017-09-24T14:17:23.255Z,47.40
2017-09-24T14:19:51.718Z,49.50
2017-09-24T14:22:19.353Z,51.10
2017-09-24T14:24:46.947Z,52.50
2017-09-24T14:27:14.527Z,53.70
2017-09-24T14:29:42.116Z,54.80
2017-09-24T14:32:09.725Z,54.80
2017-09-24T14:34:37.399Z,55.20
2017-09-24T14:37:05.307Z,55.40
2017-09-24T14:39:32.920Z,55.60
2017-09-24T14:42:00.535Z,55.60
2017-09-24T14:44:28.154Z,55.70
2017-09-24T14:46:55.794Z,56.90
2017-09-24T14:49:23.463Z,55.30
2017-09-24T14:51:51.194Z,56.40
2017-09-24T14:54:18.795Z,57.10
2017-09-24T14:56:46.612Z,56.80
2017-09-24T14:59:14.229Z,56.90
2017-09-24T15:01:41.815Z,57.30
2017-09-24T15:04:09.447Z,56.70
2017-09-24T15:06:37.070Z,56.30
2017-09-24T15:09:04.935Z,57.50
2017-09-24T15:11:32.516Z,58.20
2017-09-24T15:14:00.126Z,61.60
2017-09-24T15:16:30.834Z,65.10
2017-09-24T15:18:59.215Z,68.00
2017-09-24T15:21:27.567Z,68.40
2017-09-24T15:23:55.163Z,68.30
2017-09-24T15:26:23.866Z,70.80
2017-09-24T15:28:51.447Z,70.80
2017-09-24T15:31:19.469Z,72.80
2017-09-24T15:33:47.936Z,75.20
2017-09-24T15:36:15.987Z,75.20
2017-09-24T15:38:44.418Z,77.20
2017-09-24T15:41:12.084Z,77.20
2017-09-24T15:43:39.975Z,76.70
2017-09-24T15:46:08.182Z,77.40
2017-09-24T15:48:35.844Z,76.00
2017-09-24T15:51:03.481Z,75.20
2017-09-24T15:53:31.541Z,74.80
2017-09-24T15:55:59.224Z,74.70
2017-09-24T15:58:26.873Z,73.60
2017-09-24T16:00:54.766Z,74.20
2017-09-24T16:03:22.351Z,74.70
2017-09-24T16:05:50.752Z,76.50
2017-09-24T16:08:18.364Z,76.50
2017-09-24T16:10:46.338Z,77.60
2017-09-24T16:13:13.975Z,78.00
2017-09-24T16:15:41.559Z,78.20
2017-09-24T16:18:10.042Z,78.90
2017-09-24T16:20:38.410Z,79.40
2017-09-24T16:23:06.026Z,79.40
2017-09-24T16:25:33.636Z,80.00
2017-09-24T16:28:01.204Z,78.80
2017-09-24T16:30:29.587Z,79.40
2017-09-24T16:32:57.962Z,80.10
2017-09-24T16:35:26.908Z,80.10
2017-09-24T16:37:54.718Z,80.00
2017-09-24T16:40:23.222Z,81.80
2017-09-24T16:42:50.957Z,81.80
2017-09-24T16:45:18.563Z,81.50
2017-09-24T16:47:46.238Z,82.80
2017-09-24T16:50:13.866Z,83.40
2017-09-24T16:52:41.589Z,84.20
2017-09-24T16:55:09.186Z,84.90
2017-09-24T16:57:36.807Z,85.20
2017-09-24T17:00:04.443Z,85.10
2017-09-24T17:02:32.068Z,85.80
2017-09-24T17:04:59.734Z,86.40
2017-09-24T17:07:28.173Z,87.00
2017-09-24T17:09:56.212Z,87.10
2017-09-24T17:12:23.842Z,87.30
2017-09-24T17:14:51.466Z,87.80
2017-09-24T17:17:19.103Z,88.00
2017-09-24T17:19:46.826Z,88.50
2017-09-24T17:22:14.480Z,88.70
2017-09-24T17:24:42.822Z,89.90
2017-09-24T17:27:10.731Z,89.80
2017-09-24T17:29:38.370Z,90.10
2017-09-24T17:32:06.789Z,90.50
2017-09-24T17:34:34.464Z,90.40
2017-09-24T17:37:02.048Z,90.60
2017-09-24T17:39:29.842Z,90.80
2017-09-24T17:41:58.305Z,91.90
2017-09-24T17:44:27.192Z,92.60
2017-09-24T17:46:54.810Z,92.60
2017-09-24T17:49:22.427Z,93.20
2017-09-24T17:51:50.805Z,94.00
2017-09-24T17:54:19.787Z,94.90
2017-09-24T17:56:47.444Z,94.70
2017-09-24T17:59:15.922Z,95.70
2017-09-24T18:01:43.535Z,95.70
2017-09-24T18:04:11.169Z,95.70
2017-09-24T18:06:39.592Z,96.20
2017-09-24T18:09:07.304Z,96.20
2017-09-24T18:11:37.115Z,96.70
2017-09-24T18:14:05.632Z,97.10
2017-09-24T18:16:33.307Z,97.10
2017-09-24T18:19:00.964Z,97.70
2017-09-24T18:21:28.589Z,98.80
2017-09-24T18:23:57.049Z,99.60
2017-09-24T18:26:24.664Z,99.60
2017-09-24T18:28:52.303Z,99.70
2017-09-24T18:31:20.682Z,99.90
2017-09-24T18:33:48.368Z,99.90
2017-09-24T18:36:16.209Z,99.90
2017-09-24T18:38:43.848Z,99.90
2017-09-24T18:41:12.284Z,99.90
2017-09-24T18:43:39.995Z,99.90
2017-09-24T18:46:08.405Z,99.90
2017-09-24T18:48:36.128Z,99.90
2017-09-24T18:51:04.505Z,99.90
2017-09-24T18:53:32.115Z,99.90
2017-09-24T18:55:59.734Z,99.90
2017-09-24T18:58:28.115Z,99.90
2017-09-24T19:00:56.851Z,99.90
2017-09-24T19:03:24.536Z,99.90
2017-09-24T19:05:52.263Z,99.90
2017-09-24T19:08:19.911Z,99.90
2017-09-24T19:10:47.510Z,99.90
2017-09-24T19:13:15.223Z,99.90
2017-09-24T19:15:42.808Z,99.90
2017-09-24T19:18:10.817Z,99.90
2017-09-24T19:20:38.479Z,99.90
2017-09-24T19:23:06.121Z,99.90
2017-09-24T19:25:33.832Z,99.90
2017-09-24T19:28:03.333Z,99.90
2017-09-24T19:30:32.650Z,99.90
2017-09-24T19:33:00.252Z,99.90
2017-09-24T19:35:28.009Z,99.90
2017-09-24T19:37:55.676Z,99.90
2017-09-24T19:40:23.329Z,99.90
2017-09-24T19:42:50.996Z,99.90
2017-09-24T19:45:18.619Z,99.90
2017-09-24T19:47:46.518Z,99.90
2017-09-24T19:50:15.623Z,99.90
2017-09-24T19:52:43.254Z,99.90
2017-09-24T19:55:10.902Z,99.90
2017-09-24T19:57:38.572Z,99.90
2017-09-24T20:00:07.329Z,99.90
2017-09-24T20:02:35.360Z,99.90
2017-09-24T20:05:02.985Z,99.90
2017-09-24T20:07:30.863Z,99.90
2017-09-24T20:09:58.610Z,99.90
2017-09-24T20:12:26.207Z,99.90
2017-09-24T20:14:53.842Z,99.90
2017-09-24T20:17:24.841Z,99.90
2017-09-24T20:19:53.226Z,99.90
2017-09-24T20:22:21.595Z,99.90
2017-09-24T20:24:49.241Z,99.90
2017-09-24T20:27:16.963Z,99.90
2017-09-24T20:29:44.543Z,99.90
2017-09-24T20:32:12.139Z,99.90
2017-09-24T20:34:39.949Z,99.90
2017-09-24T20:37:07.635Z,99.90
2017-09-24T20:39:35.199Z,99.90
2017-09-24T20:42:03.578Z,99.90
2017-09-24T20:44:31.171Z,99.90
2017-09-24T20:46:59.579Z,99.90
2017-09-24T20:49:27.877Z,99.90
2017-09-24T20:51:55.751Z,99.90
2017-09-24T20:54:23.355Z,99.90
2017-09-24T20:56:51.708Z,99.90
2017-09-24T20:59:19.327Z,99.90
2017-09-24T21:01:46.926Z,99.90
2017-09-24T21:04:14.508Z,99.90
2017-09-24T21:06:42.874Z,99.90
2017-09-24T21:09:10.602Z,99.90
2017-09-24T21:11:38.279Z,99.90
2017-09-24T21:14:05.928Z,99.90
2017-09-24T21:16:33.559Z,99.90
2017-09-24T21:19:01.142Z,99.90
2017-09-24T21:21:28.865Z,99.90
2017-09-24T21:23:56.474Z,99.90
2017-09-24T21:26:24.655Z,99.90
2017-09-24T21:28:52.259Z,99.90
2017-09-24T21:31:20.608Z,99.90
2017-09-24T21:33:48.324Z,99.90
2017-09-24T21:36:15.946Z,99.90
2017-09-24T21:38:44.318Z,99.90
2017-09-24T21:41:11.927Z,99.90
2017-09-24T21:43:40.140Z,99.90
2017-09-24T21:46:07.720Z,99.90
2017-09-24T21:48:36.098Z,99.90
2017-09-24T21:51:04.547Z,99.90
2017-09-24T21:53:32.174Z,99.90
2017-09-24T21:55:59.939Z,99.90
2017-09-24T21:58:27.535Z,99.90
2017-09-24T22:00:55.715Z,99.90
2017-09-24T22:03:23.267Z,99.90
2017-09-24T22:05:50.845Z,99.90
2017-09-24T22:08:18.487Z,99.90
2017-09-24T22:10:46.087Z,99.90
2017-09-24T22:13:14.464Z,99.90
2017-09-24T22:15:42.814Z,99.90
2017-09-24T22:18:10.697Z,99.90
2017-09-24T22:20:39.137Z,99.90
2017-09-24T22:23:06.767Z,99.90
2017-09-24T22:25:34.383Z,99.90
2017-09-24T22:28:02.753Z,99.90
2017-09-24T22:30:30.625Z,99.90
2017-09-24T22:32:58.245Z,99.90
2017-09-24T22:35:26.149Z,99.90
2017-09-24T22:37:53.769Z,99.90
2017-09-24T22:40:21.386Z,99.90
2017-09-24T22:42:49.776Z,99.90
2017-09-24T22:45:18.176Z,99.90
2017-09-24T22:47:45.802Z,99.90
2017-09-24T22:50:14.187Z,99.90
2017-09-24T22:52:42.813Z,99.90
2017-09-24T22:55:10.424Z,99.90
2017-09-24T22:57:38.789Z,99.90
2017-09-24T23:00:06.404Z,99.90
2017-09-24T23:02:34.035Z,99.90
2017-09-24T23:05:02.418Z,99.90
2017-09-24T23:07:30.019Z,99.90
2017-09-24T23:09:57.909Z,99.90
2017-09-24T23:12:25.508Z,99.90
2017-09-24T23:14:54.129Z,99.90
2017-09-24T23:17:21.769Z,99.90
2017-09-24T23:19:49.384Z,99.90
2017-09-24T23:22:18.351Z,99.90
2017-09-24T23:24:45.935Z,99.90
2017-09-24T23:27:13.886Z,99.90
2017-09-24T23:29:41.475Z,99.90
2017-09-24T23:32:09.833Z,99.90
2017-09-24T23:34:37.424Z,99.90
2017-09-24T23:37:05.013Z,99.90
2017-09-24T23:39:32.613Z,99.90
2017-09-24T23:42:00.437Z,99.90
2017-09-24T23:44:28.326Z,99.90
2017-09-24T23:46:55.945Z,99.90
2017-09-24T23:49:24.308Z,99.90
2017-09-24T23:51:51.906Z,99.90
2017-09-24T23:54:19.485Z,99.90
2017-09-24T23:56:47.088Z,99.90
2017-09-24T23:59:15.450Z,99.90
